KETH Airport (Wheaton Muni) Information

FAA: ETH - ICAO: KETH

KETH Airport Location

State Minnesota
County Traverse
City Wheaton
KETH Airport is 3 miles southwest of Wheaton, MN.
Latitude 45-46-49.8219N
Longitude 096-32-37.6727W
Elevation 1,022ft

KETH Airport METARs

METAR KETH 060633Z AUTO 08003KT 10SM SCT028 BKN038 OVC045 22/19 A2999 RMK AO2
Altimeter 29.99"
Temperature 22.0°C (71.6°F)
Wind 80° at 3KT
Clouds scattered at 2,800ft broken at 3,800ft overcast at 4,500ft
Visibility 10.0mi
Time observed: 2022-07-06T06:33:00Z

KETH Airport Details

Status Operational
Activation April 1947
Ownership Public
Usage Public
Chart TWIN CITIES
ATC on-site No
Beacon schedule sunset-sunrise
Beacon color clear green

KETH Airport Contacts

Owner CITY OF WHEATON
Owner address BOX 868, WHEATON, MN 56296
Owner phone 320-563-4110
Manager AARON PETERSON
Manager address 120 E. BRIDGE AVE., WARREN, MN 56762
Manager phone (218) 201-0652

KETH Airport (Wheaton Muni) Radio Frequencies

KETH (Airport) Radio Frequencies

UNICOM 122.8
Common traffic advisory frequency (CTAF) 122.8